Time;durP1;ratioP1;P1;durP2;ratioP2;P2;SDS_P1;SDS_P2;PMS_P1;PMS_P2;Temp;Humidity;BMP_temperature;BMP_pressure;BME280_temperature;BME280_humidity;BME280_pressure;Samples;Min_cycle;Max_cycle;Signal;HPM_P1;HPM_P2
2021/04/16 00:02:12;;;;;;;6.10;2.30;;;1.20;99.90;;;;;;5106818;28;20068;-70
2021/04/16 00:04:38;;;;;;;4.40;2.05;;;1.40;99.90;;;;;;5108069;28;20050;-70
2021/04/16 00:07:25;;;;;;;4.47;1.88;;;1.40;99.90;;;;;;5105063;28;20072;-71
2021/04/16 00:10:17;;;;;;;4.38;1.80;;;1.40;99.90;;;;;;5102592;28;20047;-70
2021/04/16 00:12:58;;;;;;;4.95;2.38;;;1.40;99.90;;;;;;5103669;28;20048;-70
2021/04/16 00:15:27;;;;;;;4.20;2.00;;;1.50;99.90;;;;;;5108818;28;20039;-71
2021/04/16 00:17:54;;;;;;;6.03;2.00;;;1.40;99.90;;;;;;5107497;28;20047;-69
2021/04/16 00:20:23;;;;;;;3.75;1.80;;;1.50;99.90;;;;;;5105172;28;20465;-69
2021/04/16 00:22:49;;;;;;;5.10;2.05;;;1.50;99.90;;;;;;5102286;28;20116;-69
2021/04/16 00:25:18;;;;;;;3.08;1.58;;;1.50;99.90;;;;;;5105425;28;20051;-69
2021/04/16 00:27:45;;;;;;;4.93;2.35;;;1.50;99.90;;;;;;5106073;28;20055;-69
2021/04/16 00:30:12;;;;;;;5.00;2.10;;;1.50;99.90;;;;;;5108343;28;20077;-69
2021/04/16 00:32:39;;;;;;;4.65;2.00;;;1.60;99.90;;;;;;5104958;28;20044;-68
2021/04/16 00:35:09;;;;;;;3.83;1.73;;;1.60;99.90;;;;;;5102516;28;20064;-69
2021/04/16 00:37:35;;;;;;;4.80;2.53;;;1.70;99.90;;;;;;5090130;28;20040;-69
2021/04/16 00:40:06;;;;;;;5.45;1.90;;;1.70;99.90;;;;;;5103456;28;20104;-70
2021/04/16 00:42:33;;;;;;;4.90;1.90;;;1.80;99.90;;;;;;5105464;28;21446;-68
2021/04/16 00:44:59;;;;;;;5.88;2.35;;;1.70;99.90;;;;;;5097539;28;20047;-69
2021/04/16 00:47:26;;;;;;;6.47;2.08;;;1.70;99.90;;;;;;5111829;28;20113;-69
2021/04/16 00:49:58;;;;;;;4.45;2.22;;;1.70;99.90;;;;;;5106989;28;20140;-69
2021/04/16 00:52:31;;;;;;;7.85;1.88;;;1.80;99.90;;;;;;5105745;28;20043;-69
2021/04/16 00:54:58;;;;;;;4.15;1.85;;;1.70;99.90;;;;;;5093237;28;20142;-69
2021/04/16 00:57:24;;;;;;;6.03;2.08;;;1.70;99.90;;;;;;5102299;28;20093;-68
2021/04/16 00:59:58;;;;;;;3.97;1.63;;;1.70;99.90;;;;;;5091896;28;20559;-69
2021/04/16 01:02:25;;;;;;;4.40;1.98;;;1.60;99.90;;;;;;5088061;28;20044;-68
2021/04/16 01:04:53;;;;;;;5.25;2.25;;;1.50;99.90;;;;;;5109540;28;20393;-68
2021/04/16 01:07:20;;;;;;;3.22;1.83;;;1.50;99.90;;;;;;5096057;28;20108;-68
2021/04/16 01:09:49;;;;;;;5.07;2.22;;;1.50;99.90;;;;;;5105751;28;20047;-69
2021/04/16 01:12:16;;;;;;;3.35;1.60;;;1.30;99.90;;;;;;5103948;28;20039;-69
2021/04/16 01:14:46;;;;;;;4.65;2.60;;;1.30;99.90;;;;;;5100534;28;20142;-69
2021/04/16 01:17:14;;;;;;;4.10;1.90;;;1.30;99.90;;;;;;5105944;27;20046;-69
2021/04/16 01:19:45;;;;;;;5.03;1.88;;;1.30;99.90;;;;;;5110932;28;20074;-68
2021/04/16 01:22:41;;;;;;;5.07;2.30;;;1.30;99.90;;;;;;5110434;27;20153;-68
2021/04/16 01:25:10;;;;;;;5.25;2.10;;;1.30;99.90;;;;;;5094037;27;20063;-69
2021/04/16 01:27:36;;;;;;;4.75;1.88;;;1.30;99.90;;;;;;5103312;28;20044;-69
2021/04/16 01:30:16;;;;;;;5.15;2.20;;;1.20;99.90;;;;;;5109331;28;20035;-69
2021/04/16 01:32:43;;;;;;;4.88;1.92;;;1.10;99.90;;;;;;5109900;27;20097;-70
2021/04/16 01:35:24;;;;;;;6.72;2.03;;;1.20;99.90;;;;;;5108835;27;20032;-69
2021/04/16 01:37:50;;;;;;;7.70;2.58;;;1.10;99.90;;;;;;5110443;27;20435;-69
2021/04/16 01:40:18;;;;;;;4.32;1.88;;;1.00;99.90;;;;;;5107529;28;20115;-69
2021/04/16 01:42:44;;;;;;;6.13;2.22;;;1.00;99.90;;;;;;5109794;27;20493;-70
2021/04/16 01:45:21;;;;;;;6.18;2.67;;;1.00;99.90;;;;;;5106122;27;20040;-71
2021/04/16 01:47:59;;;;;;;5.40;2.70;;;1.00;99.90;;;;;;5113206;27;20047;-68
2021/04/16 01:50:26;;;;;;;4.30;1.90;;;1.10;99.90;;;;;;5092016;28;20050;-68
2021/04/16 01:52:52;;;;;;;5.35;2.50;;;1.10;99.90;;;;;;5108323;28;20426;-71
2021/04/16 01:55:20;;;;;;;3.13;1.88;;;1.10;99.90;;;;;;5092395;28;20048;-71
2021/04/16 01:57:47;;;;;;;5.60;2.22;;;1.00;99.90;;;;;;5110021;28;20112;-70
2021/04/16 02:00:28;;;;;;;7.20;3.03;;;1.00;99.90;;;;;;5102153;27;20386;-69
2021/04/16 02:03:15;;;;;;;6.70;2.30;;;1.00;99.90;;;;;;5108845;28;20046;-70
2021/04/16 02:06:03;;;;;;;6.78;2.25;;;0.70;99.90;;;;;;5106585;28;20385;-70
2021/04/16 02:08:50;;;;;;;4.70;2.30;;;0.70;99.90;;;;;;5107563;28;20398;-70
2021/04/16 02:11:38;;;;;;;6.18;2.65;;;0.80;99.90;;;;;;5094540;27;20055;-70
2021/04/16 02:14:28;;;;;;;5.65;2.53;;;0.90;99.90;;;;;;5094407;27;20413;-70
2021/04/16 02:17:18;;;;;;;7.07;2.85;;;0.90;99.90;;;;;;5101057;27;20035;-70
2021/04/16 02:20:11;;;;;;;6.18;2.67;;;1.00;99.90;;;;;;5098531;28;20114;-71
2021/04/16 02:22:58;;;;;;;4.60;2.33;;;1.00;99.90;;;;;;5104324;28;20039;-70
2021/04/16 02:25:42;;;;;;;6.20;2.78;;;1.10;99.90;;;;;;5093225;28;20394;-70
2021/04/16 02:28:09;;;;;;;7.10;3.40;;;1.00;99.90;;;;;;5107951;27;20501;-71
2021/04/16 02:30:36;;;;;;;10.23;2.50;;;0.90;99.90;;;;;;5102146;28;20046;-70
2021/04/16 02:33:03;;;;;;;4.82;2.72;;;0.90;99.90;;;;;;5103005;28;20052;-70
2021/04/16 02:35:31;;;;;;;6.47;3.08;;;1.00;99.90;;;;;;5086915;28;20075;-71
2021/04/16 02:37:57;;;;;;;5.45;2.55;;;1.00;99.90;;;;;;5111379;27;20176;-70
2021/04/16 02:40:26;;;;;;;5.32;2.88;;;1.10;99.90;;;;;;5123612;27;20105;-71
2021/04/16 02:42:54;;;;;;;6.10;3.00;;;1.10;99.90;;;;;;5091136;28;20382;-70
2021/04/16 02:45:23;;;;;;;5.30;2.70;;;1.30;99.90;;;;;;5098408;27;20097;-69
2021/04/16 02:47:50;;;;;;;7.03;3.05;;;1.30;99.90;;;;;;5101384;27;20044;-69
2021/04/16 02:50:21;;;;;;;6.88;2.63;;;1.30;99.90;;;;;;5108337;28;20116;-70
2021/04/16 02:52:47;;;;;;;7.03;3.40;;;1.30;99.90;;;;;;5123200;27;20044;-69
2021/04/16 02:55:14;;;;;;;7.22;3.45;;;1.20;99.90;;;;;;5106851;28;20097;-69
2021/04/16 02:57:40;;;;;;;9.15;4.30;;;1.30;99.90;;;;;;5109054;27;20040;-69
2021/04/16 03:00:10;;;;;;;5.45;3.78;;;1.20;99.90;;;;;;5085672;28;20036;-68
2021/04/16 03:02:37;;;;;;;11.77;4.28;;;1.40;99.90;;;;;;5099496;28;20052;-68
2021/04/16 03:05:06;;;;;;;9.02;4.38;;;1.40;99.90;;;;;;5099171;28;20417;-68
2021/04/16 03:07:32;;;;;;;8.95;4.07;;;1.40;99.90;;;;;;5093051;27;20043;-69
2021/04/16 03:09:58;;;;;;;7.13;3.58;;;1.30;99.90;;;;;;5095087;28;20101;-68
2021/04/16 03:12:25;;;;;;;6.72;3.72;;;1.40;99.90;;;;;;5106014;28;20040;-69
2021/04/16 03:14:51;;;;;;;7.53;4.30;;;1.40;99.90;;;;;;5092391;27;20047;-69
2021/04/16 03:17:17;;;;;;;6.28;4.50;;;1.40;99.90;;;;;;5108754;28;20042;-69
2021/04/16 03:19:44;;;;;;;6.70;4.28;;;1.40;99.90;;;;;;5093248;27;20043;-69
2021/04/16 03:22:10;;;;;;;6.90;3.90;;;1.40;99.90;;;;;;5109157;28;20040;-68
2021/04/16 03:24:37;;;;;;;7.95;3.97;;;1.40;99.90;;;;;;5099500;28;20036;-69
2021/04/16 03:27:05;;;;;;;6.85;4.43;;;1.40;99.90;;;;;;5107568;28;20114;-68
2021/04/16 03:29:32;;;;;;;6.47;4.70;;;1.30;99.90;;;;;;5108268;27;20051;-69
2021/04/16 03:31:59;;;;;;;9.25;4.60;;;1.30;99.90;;;;;;5119657;27;20039;-69
2021/04/16 03:34:25;;;;;;;10.32;5.03;;;1.40;99.90;;;;;;5101984;28;20062;-69
2021/04/16 03:36:52;;;;;;;7.03;4.82;;;1.30;99.90;;;;;;5108956;28;20097;-70
2021/04/16 03:39:19;;;;;;;8.35;5.00;;;1.40;99.90;;;;;;5107044;28;20054;-69
2021/04/16 03:41:45;;;;;;;9.15;5.60;;;1.50;99.90;;;;;;5079619;28;20116;-69
2021/04/16 03:44:12;;;;;;;7.68;5.75;;;1.50;99.90;;;;;;5108793;28;20518;-69
2021/04/16 03:46:38;;;;;;;7.53;5.28;;;1.50;99.90;;;;;;5107020;28;20087;-69
2021/04/16 03:49:05;;;;;;;8.52;5.30;;;1.50;99.90;;;;;;5097316;28;20046;-69
2021/04/16 03:51:45;;;;;;;11.20;5.45;;;1.50;99.90;;;;;;5093785;28;20036;-69
2021/04/16 03:54:11;;;;;;;9.82;5.80;;;1.50;99.90;;;;;;5106735;28;20043;-69
2021/04/16 03:56:38;;;;;;;9.25;5.65;;;1.50;99.90;;;;;;5108457;27;20120;-69
2021/04/16 03:59:04;;;;;;;9.45;6.00;;;1.50;99.90;;;;;;5095640;28;20050;-70
2021/04/16 04:01:31;;;;;;;9.48;5.97;;;1.50;99.90;;;;;;5104057;28;20048;-69
2021/04/16 04:03:58;;;;;;;8.02;5.35;;;1.30;99.90;;;;;;5108478;28;20054;-69
2021/04/16 04:06:24;;;;;;;7.30;5.18;;;1.40;99.90;;;;;;5105122;28;20047;-69
2021/04/16 04:08:50;;;;;;;7.70;5.38;;;1.30;99.90;;;;;;5101846;28;20032;-70
2021/04/16 04:11:17;;;;;;;7.68;5.00;;;1.30;99.90;;;;;;5100653;28;20047;-70
2021/04/16 04:13:43;;;;;;;9.00;5.32;;;1.20;99.90;;;;;;5104893;28;20036;-69
2021/04/16 04:16:09;;;;;;;10.00;5.97;;;1.20;99.90;;;;;;5107182;28;20459;-69
2021/04/16 04:18:36;;;;;;;9.45;6.18;;;1.20;99.90;;;;;;5082950;28;20143;-69
2021/04/16 04:21:03;;;;;;;11.75;6.15;;;1.10;99.90;;;;;;5102747;28;20051;-69
2021/04/16 04:23:30;;;;;;;10.80;7.30;;;1.10;99.90;;;;;;5108329;28;20051;-69
2021/04/16 04:25:57;;;;;;;17.15;6.57;;;1.10;99.90;;;;;;5106874;28;20040;-69
2021/04/16 04:28:24;;;;;;;11.02;6.68;;;1.00;99.90;;;;;;5106474;28;20375;-69
2021/04/16 04:30:51;;;;;;;11.45;6.63;;;1.10;99.90;;;;;;5112918;28;20051;-69
2021/04/16 04:33:37;;;;;;;11.38;7.28;;;1.10;99.90;;;;;;5105229;28;20039;-69
2021/04/16 04:36:24;;;;;;;10.27;6.32;;;1.20;99.90;;;;;;5105252;28;20412;-69
2021/04/16 04:39:12;;;;;;;12.93;7.13;;;1.20;99.90;;;;;;5108319;28;20523;-69
2021/04/16 04:41:42;;;;;;;10.85;6.95;;;1.10;99.90;;;;;;5106967;28;20043;-69
2021/04/16 04:44:09;;;;;;;9.73;6.30;;;1.00;99.90;;;;;;5108369;28;20048;-70
2021/04/16 04:46:36;;;;;;;12.07;7.15;;;0.90;99.90;;;;;;5106747;28;20122;-70
2021/04/16 04:49:23;;;;;;;10.10;6.72;;;0.90;99.90;;;;;;5099311;28;20032;-70
2021/04/16 04:52:17;;;;;;;9.80;6.75;;;0.90;99.90;;;;;;5097222;28;20514;-70
2021/04/16 04:55:15;;;;;;;12.40;7.32;;;1.00;99.90;;;;;;5076560;28;20048;-69
2021/04/16 04:58:02;;;;;;;10.20;7.22;;;1.00;99.90;;;;;;5103646;28;20408;-70
2021/04/16 05:00:42;;;;;;;16.48;7.18;;;1.10;99.90;;;;;;5093862;28;20052;-70
2021/04/16 05:03:08;;;;;;;12.65;7.70;;;1.10;99.90;;;;;;5112781;27;20051;-70
2021/04/16 05:05:35;;;;;;;13.02;8.00;;;1.20;99.90;;;;;;5111355;28;20398;-70
2021/04/16 05:08:01;;;;;;;12.43;6.65;;;1.30;99.90;;;;;;5109504;28;20097;-70
2021/04/16 05:10:28;;;;;;;10.10;6.43;;;1.40;99.90;;;;;;5100246;28;20028;-70
2021/04/16 05:12:54;;;;;;;13.75;7.57;;;1.40;99.90;;;;;;5113943;28;20040;-70
2021/04/16 05:15:21;;;;;;;11.05;5.95;;;1.50;99.90;;;;;;5099973;28;20044;-70
2021/04/16 05:17:48;;;;;;;11.85;8.45;;;1.60;99.90;;;;;;5096077;28;20040;-70
2021/04/16 05:20:15;;;;;;;10.07;6.45;;;1.70;99.90;;;;;;5107094;27;20046;-70
2021/04/16 05:22:41;;;;;;;11.95;6.45;;;1.80;99.90;;;;;;5134424;27;20092;-70
2021/04/16 05:25:08;;;;;;;9.05;5.50;;;1.90;99.90;;;;;;5131594;27;20501;-69
2021/04/16 05:27:35;;;;;;;9.93;5.68;;;1.90;99.90;;;;;;5108261;28;20444;-70
2021/04/16 05:30:03;;;;;;;10.23;5.53;;;2.00;99.90;;;;;;5093956;28;20101;-71
2021/04/16 05:32:30;;;;;;;11.43;5.28;;;2.00;99.90;;;;;;5094711;28;20132;-70
2021/04/16 05:34:56;;;;;;;10.98;5.43;;;2.10;99.90;;;;;;5089481;28;20035;-70
2021/04/16 05:37:34;;;;;;;7.43;4.97;;;2.10;99.90;;;;;;5107869;28;20035;-70
2021/04/16 05:40:01;;;;;;;11.95;4.75;;;2.20;99.90;;;;;;5089022;28;20447;-69
2021/04/16 05:42:27;;;;;;;9.48;5.45;;;2.30;99.90;;;;;;5111172;28;20305;-70
2021/04/16 05:45:15;;;;;;;9.23;5.07;;;2.30;99.90;;;;;;5095088;27;20050;-70
2021/04/16 05:48:02;;;;;;;8.80;4.70;;;2.50;99.90;;;;;;5106987;27;20052;-70
2021/04/16 05:50:49;;;;;;;6.57;4.63;;;2.40;99.90;;;;;;5110742;28;20052;-70
2021/04/16 05:53:34;;;;;;;6.35;4.47;;;2.50;99.90;;;;;;5111015;27;20042;-70
2021/04/16 05:56:02;;;;;;;9.52;4.68;;;2.50;99.90;;;;;;5112410;28;20043;-70
2021/04/16 05:58:28;;;;;;;9.60;5.20;;;2.40;99.90;;;;;;5109475;28;20051;-70
2021/04/16 06:00:54;;;;;;;11.00;5.30;;;2.50;99.90;;;;;;5112527;28;20036;-70
2021/04/16 06:03:21;;;;;;;9.40;5.35;;;2.50;99.90;;;;;;5110600;28;20312;-70
2021/04/16 06:05:47;;;;;;;7.95;5.10;;;2.70;99.90;;;;;;5090974;28;20446;-70
2021/04/16 06:08:18;;;;;;;10.05;5.40;;;2.60;99.90;;;;;;5095019;28;20047;-70
2021/04/16 06:10:44;;;;;;;15.90;5.28;;;2.50;99.90;;;;;;5112814;28;20035;-70
2021/04/16 06:13:10;;;;;;;7.55;4.57;;;2.70;99.90;;;;;;5110154;28;20063;-70
2021/04/16 06:15:37;;;;;;;8.88;4.78;;;2.80;99.90;;;;;;5108055;28;20065;-70
2021/04/16 06:18:03;;;;;;;7.60;5.15;;;2.90;99.90;;;;;;5124932;27;20048;-70
2021/04/16 06:20:30;;;;;;;7.40;4.20;;;3.00;99.90;;;;;;5110657;28;20065;-70
2021/04/16 06:22:58;;;;;;;8.65;4.32;;;3.20;99.90;;;;;;5111755;28;20051;-70
2021/04/16 06:25:28;;;;;;;6.93;3.85;;;3.20;99.90;;;;;;5109870;28;20047;-70
2021/04/16 06:27:54;;;;;;;8.85;4.45;;;3.30;99.90;;;;;;5108145;28;20047;-70
2021/04/16 06:30:21;;;;;;;8.90;4.30;;;3.30;99.90;;;;;;5112082;28;20047;-70
2021/04/16 06:33:19;;;;;;;8.38;4.40;;;3.50;99.90;;;;;;5091975;28;20459;-70
2021/04/16 06:35:50;;;;;;;10.23;4.78;;;3.60;99.90;;;;;;5092669;27;20040;-70
2021/04/16 06:38:39;;;;;;;9.45;4.55;;;3.80;99.90;;;;;;5101866;28;20048;-70
2021/04/16 06:41:31;;;;;;;11.40;5.25;;;3.70;99.90;;;;;;5104996;28;20552;-70
2021/04/16 06:44:40;;;;;;;9.32;4.65;;;3.80;99.90;;;;;;5108970;28;20044;-70
2021/04/16 06:47:18;;;;;;;9.55;4.65;;;3.90;99.90;;;;;;5110864;28;20058;-70
2021/04/16 06:49:45;;;;;;;6.50;4.30;;;3.90;99.90;;;;;;5092391;28;20047;-71
2021/04/16 06:52:38;;;;;;;8.63;4.85;;;3.90;99.90;;;;;;5107510;28;20047;-71
2021/04/16 06:55:13;;;;;;;13.90;4.95;;;4.00;99.90;;;;;;5096421;28;20046;-70
2021/04/16 06:58:02;;;;;;;8.68;4.53;;;3.80;99.90;;;;;;5107320;28;20101;-71
2021/04/16 07:00:31;;;;;;;6.85;4.95;;;4.00;99.90;;;;;;5107016;28;20509;-71
2021/04/16 07:03:14;;;;;;;9.05;4.60;;;4.10;99.90;;;;;;5090761;28;20048;-71
2021/04/16 07:05:55;;;;;;;7.55;4.60;;;4.10;99.90;;;;;;5091199;28;20048;-70
2021/04/16 07:08:24;;;;;;;7.68;4.35;;;4.20;99.90;;;;;;5089803;28;20097;-70
2021/04/16 07:10:54;;;;;;;8.95;5.03;;;4.40;99.90;;;;;;5091391;28;20055;-70
2021/04/16 07:13:29;;;;;;;8.38;4.15;;;4.30;99.90;;;;;;5106307;28;20048;-70
2021/04/16 07:15:55;;;;;;;7.13;4.55;;;4.50;99.90;;;;;;5092274;28;20096;-70
2021/04/16 07:18:30;;;;;;;9.18;4.78;;;4.50;99.90;;;;;;5104172;28;20048;-70
2021/04/16 07:20:57;;;;;;;6.93;4.43;;;4.60;99.90;;;;;;5105904;28;20043;-71
2021/04/16 07:23:24;;;;;;;6.82;4.05;;;4.60;99.90;;;;;;5109470;28;20168;-70
2021/04/16 07:26:33;;;;;;;7.03;4.35;;;4.70;99.90;;;;;;5109622;28;20046;-70
2021/04/16 07:29:06;;;;;;;;;;;4.50;99.90;;;;;;5110857;27;20108;-71
2021/04/16 07:31:46;;;;;;;9.13;5.03;;;4.80;99.90;;;;;;5090693;28;19920;-71
2021/04/16 07:34:36;;;;;;;12.55;4.70;;;4.70;99.90;;;;;;5090909;28;20225;-71
2021/04/16 07:37:07;;;;;;;12.48;4.80;;;4.60;99.90;;;;;;5115978;27;20058;-71
2021/04/16 07:39:36;;;;;;;7.75;5.10;;;4.80;99.90;;;;;;5109630;28;20039;-70
2021/04/16 07:42:08;;;;;;;8.35;4.75;;;4.60;99.90;;;;;;5110339;28;20047;-71
2021/04/16 07:44:40;;;;;;;7.00;4.78;;;4.50;99.90;;;;;;5097188;28;20040;-70
2021/04/16 07:47:12;;;;;;;6.65;4.30;;;4.30;99.90;;;;;;5102769;28;20421;-70
2021/04/16 07:49:57;;;;;;;8.98;4.75;;;4.70;99.90;;;;;;5111058;28;20070;-71
2021/04/16 07:52:47;;;;;;;9.18;4.13;;;5.10;99.90;;;;;;5092073;28;20054;-69
2021/04/16 07:55:16;;;;;;;5.60;3.75;;;5.40;99.90;;;;;;5105642;28;20128;-71
2021/04/16 07:57:52;;;;;;;8.00;3.95;;;5.40;99.90;;;;;;5107630;28;20105;-68
2021/04/16 08:00:39;;;;;;;9.63;4.55;;;5.80;99.90;;;;;;5103848;28;20054;-69
2021/04/16 08:03:07;;;;;;;;;;;5.70;99.90;;;;;;5108633;28;20044;-71
2021/04/16 08:05:37;;;;;;;8.23;3.67;;;5.30;99.90;;;;;;5089188;28;19920;-71
2021/04/16 08:08:13;;;;;;;7.75;4.68;;;5.50;99.90;;;;;;5095306;28;20081;-68
2021/04/16 08:10:41;;;;;;;7.75;3.72;;;5.30;99.90;;;;;;5074458;28;20160;-70
2021/04/16 08:13:18;;;;;;;6.65;3.60;;;5.10;99.90;;;;;;5084026;28;20097;-70
2021/04/16 08:15:44;;;;;;;6.22;3.60;;;5.20;99.90;;;;;;5098810;28;20055;-71
2021/04/16 08:18:31;;;;;;;6.07;3.85;;;5.00;99.90;;;;;;5105602;28;20092;-71
2021/04/16 08:21:17;;;;;;;5.10;3.20;;;5.20;99.90;;;;;;5099531;28;20052;-70
2021/04/16 08:23:53;;;;;;;5.53;2.95;;;5.20;99.90;;;;;;5104395;28;20051;-70
2021/04/16 08:26:24;;;;;;;6.70;3.67;;;5.20;99.90;;;;;;5099892;27;20043;-71
2021/04/16 08:29:11;;;;;;;5.82;2.67;;;5.30;99.90;;;;;;5118914;28;20124;-70
2021/04/16 08:31:52;;;;;;;5.00;2.70;;;5.40;99.90;;;;;;5112618;28;20035;-70
2021/04/16 08:34:41;;;;;;;8.23;3.20;;;5.30;99.90;;;;;;5109748;28;20043;-71
2021/04/16 08:37:21;;;;;;;9.00;3.40;;;5.10;99.90;;;;;;5093974;28;20090;-70
2021/04/16 08:39:48;;;;;;;4.85;2.88;;;4.80;99.90;;;;;;5085468;28;20498;-69
2021/04/16 08:42:31;;;;;;;6.85;2.95;;;4.80;99.90;;;;;;5101388;28;20051;-68
2021/04/16 08:45:13;;;;;;;6.95;3.65;;;5.00;99.90;;;;;;5114560;27;20493;-68
2021/04/16 08:47:45;;;;;;;7.50;3.63;;;4.90;99.90;;;;;;5113684;28;20051;-68
2021/04/16 08:50:11;;;;;;;4.35;2.97;;;5.00;99.90;;;;;;5110972;28;20075;-68
2021/04/16 08:52:48;;;;;;;4.20;2.58;;;5.10;99.90;;;;;;5101279;28;20497;-68
2021/04/16 08:55:20;;;;;;;7.10;3.08;;;5.30;99.90;;;;;;5107092;27;20086;-68
2021/04/16 08:58:00;;;;;;;4.43;2.80;;;5.40;99.90;;;;;;5112741;28;20039;-68
2021/04/16 09:00:54;;;;;;;5.38;3.20;;;5.20;99.90;;;;;;5101015;28;20044;-68
2021/04/16 09:03:52;;;;;;;6.68;3.05;;;5.40;99.90;;;;;;5111186;28;20579;-68
2021/04/16 09:06:40;;;;;;;4.72;2.88;;;5.40;99.90;;;;;;5100300;27;20070;-68
2021/04/16 09:09:52;;;;;;;6.65;2.92;;;5.50;99.90;;;;;;5100893;28;20036;-68
2021/04/16 09:12:40;;;;;;;4.85;2.60;;;5.70;99.90;;;;;;5093414;28;20048;-68
2021/04/16 09:15:32;;;;;;;5.22;3.10;;;6.00;99.90;;;;;;5112915;28;20386;-69
2021/04/16 09:18:29;;;;;;;7.82;3.00;;;5.90;99.90;;;;;;5105126;28;20102;-69
2021/04/16 09:21:19;;;;;;;4.90;2.92;;;6.00;99.90;;;;;;5117190;27;20047;-69
2021/04/16 09:24:09;;;;;;;5.18;2.72;;;6.10;99.90;;;;;;5104719;28;20050;-69
2021/04/16 09:26:57;;;;;;;5.68;2.70;;;6.10;99.90;;;;;;5109704;28;20036;-69
2021/04/16 09:29:37;;;;;;;5.18;2.60;;;6.20;99.90;;;;;;5113598;28;20338;-69
2021/04/16 09:32:46;;;;;;;4.07;2.20;;;6.10;99.90;;;;;;5100017;28;20055;-69
2021/04/16 09:35:19;;;;;;;6.38;2.97;;;5.60;99.90;;;;;;5113681;27;20047;-68
2021/04/16 09:37:48;;;;;;;4.82;2.60;;;5.60;99.90;;;;;;5111795;28;20440;-69
2021/04/16 09:40:21;;;;;;;3.83;2.10;;;5.80;99.90;;;;;;5095784;28;20044;-69
2021/04/16 09:42:51;;;;;;;5.47;2.40;;;6.30;99.90;;;;;;5101212;28;20156;-69
2021/04/16 09:45:30;;;;;;;4.95;2.20;;;6.30;99.90;;;;;;5100503;28;20043;-69
2021/04/16 09:48:17;;;;;;;4.90;1.88;;;6.70;99.90;;;;;;5108090;28;20180;-69
2021/04/16 09:51:24;;;;;;;4.22;1.92;;;6.20;99.90;;;;;;5109783;28;20048;-69
2021/04/16 09:54:26;;;;;;;3.53;2.45;;;6.00;99.90;;;;;;5103404;28;20171;-70
2021/04/16 09:57:02;;;;;;;6.03;2.05;;;5.90;99.90;;;;;;5096500;28;20048;-69
2021/04/16 09:59:33;;;;;;;4.95;2.13;;;5.90;99.90;;;;;;5112746;28;20066;-70
2021/04/16 10:02:12;;;;;;;2.65;1.65;;;6.30;99.90;;;;;;5110761;28;20142;-70
2021/04/16 10:04:50;;;;;;;6.25;2.20;;;6.40;99.90;;;;;;5111659;28;20044;-70
2021/04/16 10:07:42;;;;;;;4.85;1.75;;;6.50;99.90;;;;;;5111467;28;20143;-69
2021/04/16 10:10:21;;;;;;;3.67;1.70;;;6.50;99.90;;;;;;5099308;28;20070;-70
2021/04/16 10:12:48;;;;;;;3.28;1.85;;;6.00;99.90;;;;;;5107406;28;20040;-69
2021/04/16 10:15:25;;;;;;;4.85;2.10;;;6.30;99.90;;;;;;5097299;28;20043;-70
2021/04/16 10:17:54;;;;;;;4.78;2.03;;;6.20;99.90;;;;;;5102615;28;20104;-68
2021/04/16 10:20:23;;;;;;;6.85;2.08;;;6.50;99.90;;;;;;5107073;28;20075;-68
2021/04/16 10:22:59;;;;;;;4.90;2.00;;;6.50;99.90;;;;;;5110446;28;20047;-69
2021/04/16 10:57:41;;;;;;;3.72;1.20;;;7.60;99.90;;;;;;5092801;28;20047;-68
2021/04/16 12:38:30;;;;;;;4.05;1.30;;;7.80;99.90;;;;;;5092902;28;20044;-71
2021/04/16 12:41:19;;;;;;;3.38;1.20;;;8.10;99.90;;;;;;5104971;28;20036;-68
2021/04/16 12:44:07;;;;;;;4.40;1.20;;;8.30;99.90;;;;;;5098565;28;20051;-68
2021/04/16 12:46:57;;;;;;;4.78;1.20;;;8.40;99.90;;;;;;5089938;28;20132;-68
2021/04/16 12:49:39;;;;;;;2.75;1.08;;;8.40;99.90;;;;;;5089813;28;20047;-68
2021/04/16 12:52:06;;;;;;;3.10;1.10;;;8.00;99.90;;;;;;5093455;28;20035;-68
2021/04/16 12:54:38;;;;;;;2.40;0.90;;;8.40;99.90;;;;;;5092083;28;20048;-67
2021/04/16 12:57:07;;;;;;;2.45;0.90;;;8.80;99.90;;;;;;5107269;28;20562;-68
2021/04/16 12:59:37;;;;;;;2.22;0.93;;;9.10;99.90;;;;;;5107919;28;20096;-68
2021/04/16 13:02:06;;;;;;;5.45;1.50;;;8.90;99.90;;;;;;5096608;28;20205;-68
2021/04/16 13:04:41;;;;;;;2.50;1.33;;;8.10;99.90;;;;;;5102559;28;20130;-68
2021/04/16 13:07:07;;;;;;;4.93;1.30;;;7.70;99.90;;;;;;5099293;28;20056;-68
2021/04/16 13:09:33;;;;;;;3.75;1.30;;;7.60;99.90;;;;;;5104110;28;20505;-68
2021/04/16 13:12:00;;;;;;;3.30;1.38;;;7.70;99.90;;;;;;5096363;28;20081;-68
2021/04/16 13:14:27;;;;;;;3.58;1.17;;;8.30;99.90;;;;;;5110294;28;20039;-68
2021/04/16 13:16:53;;;;;;;2.47;1.20;;;8.20;99.90;;;;;;5111392;28;20043;-69
2021/04/16 13:19:28;;;;;;;2.88;1.23;;;8.30;99.90;;;;;;5082514;28;20051;-69
2021/04/16 13:22:02;;;;;;;5.00;1.10;;;8.20;99.90;;;;;;5113039;28;20052;-68
2021/04/16 13:24:28;;;;;;;5.57;1.30;;;8.20;99.90;;;;;;5094505;28;20048;-69
2021/04/16 13:26:55;;;;;;;4.10;1.10;;;8.20;99.90;;;;;;5110280;28;20047;-68
2021/04/16 13:29:21;;;;;;;6.38;1.42;;;8.20;99.90;;;;;;5095876;28;20089;-68
2021/04/16 13:31:47;;;;;;;5.18;1.17;;;8.10;99.90;;;;;;5109708;28;20080;-68
2021/04/16 13:34:14;;;;;;;4.93;1.58;;;8.20;99.90;;;;;;5104059;28;20040;-68
2021/04/16 13:36:40;;;;;;;3.10;1.35;;;8.10;99.90;;;;;;5093843;28;20040;-68
2021/04/16 13:39:07;;;;;;;2.63;1.38;;;8.20;99.90;;;;;;5098610;28;20036;-68
2021/04/16 13:41:35;;;;;;;2.80;1.42;;;8.10;99.90;;;;;;5094153;28;20044;-69
2021/04/16 13:44:03;;;;;;;2.55;1.00;;;8.40;99.90;;;;;;5098507;28;20124;-69
2021/04/16 13:46:32;;;;;;;3.08;1.25;;;8.50;99.90;;;;;;5111331;28;20044;-70
2021/04/16 13:49:00;;;;;;;2.72;1.02;;;8.60;99.90;;;;;;5093086;28;20076;-70
2021/04/16 13:51:27;;;;;;;3.80;1.48;;;8.30;99.90;;;;;;5107787;28;20074;-69
2021/04/16 13:53:54;;;;;;;4.35;1.10;;;8.30;99.90;;;;;;5093378;27;20040;-70
2021/04/16 13:56:21;;;;;;;4.20;1.35;;;8.00;99.90;;;;;;5094542;28;20039;-69
2021/04/16 13:58:47;;;;;;;2.35;1.17;;;8.20;99.90;;;;;;5089843;28;20387;-70
2021/04/16 14:01:15;;;;;;;3.40;1.45;;;8.20;99.90;;;;;;5091075;28;20040;-69
2021/04/16 14:03:45;;;;;;;6.85;1.13;;;7.80;99.90;;;;;;5091248;28;20047;-70
2021/04/16 14:06:22;;;;;;;4.30;1.45;;;8.10;99.90;;;;;;5090512;28;20048;-69
2021/04/16 14:08:59;;;;;;;4.38;0.95;;;7.70;99.90;;;;;;5094161;28;20044;-70
2021/04/16 14:11:27;;;;;;;5.88;1.40;;;7.70;99.90;;;;;;5103395;28;20035;-69
2021/04/16 14:13:54;;;;;;;3.65;1.50;;;7.80;99.90;;;;;;5099138;28;20040;-69
2021/04/16 14:16:31;;;;;;;3.30;1.10;;;8.00;99.90;;;;;;5087658;28;20043;-70
2021/04/16 14:19:00;;;;;;;2.63;1.10;;;7.80;99.90;;;;;;5104153;28;20044;-69
2021/04/16 14:21:39;;;;;;;4.95;1.30;;;7.60;99.90;;;;;;5098416;28;20513;-69
2021/04/16 14:24:11;;;;;;;6.25;1.10;;;7.50;99.90;;;;;;5083423;28;20068;-69
2021/04/16 14:26:38;;;;;;;1.85;1.23;;;7.40;99.90;;;;;;5093978;28;20036;-69
2021/04/16 14:29:05;;;;;;;4.20;1.42;;;7.50;99.90;;;;;;5096038;28;20247;-70
2021/04/16 14:31:32;;;;;;;3.50;1.20;;;7.70;99.90;;;;;;5101339;28;20043;-69
2021/04/16 14:33:59;;;;;;;3.00;1.25;;;7.60;99.90;;;;;;5092757;28;20070;-69
2021/04/16 14:36:33;;;;;;;3.90;1.20;;;7.60;99.90;;;;;;5091340;28;20040;-69
2021/04/16 14:39:00;;;;;;;4.88;1.15;;;7.70;99.90;;;;;;5091847;28;20055;-69
2021/04/16 14:41:30;;;;;;;4.45;1.27;;;7.70;99.90;;;;;;5095871;28;20042;-69
2021/04/16 14:44:18;;;;;;;5.82;1.27;;;7.50;99.90;;;;;;5104399;28;20043;-69
2021/04/16 14:46:56;;;;;;;13.38;1.60;;;7.50;99.90;;;;;;5107654;28;20047;-70
2021/04/16 14:49:27;;;;;;;3.00;1.50;;;7.40;99.90;;;;;;5083364;28;20047;-69
2021/04/16 14:51:55;;;;;;;3.60;1.10;;;7.30;99.90;;;;;;5111568;28;20130;-69
2021/04/16 14:54:36;;;;;;;3.97;1.45;;;7.50;99.90;;;;;;5097879;28;20499;-69
2021/04/16 14:57:04;;;;;;;4.00;1.52;;;7.50;99.90;;;;;;5124121;27;20043;-69
2021/04/16 14:59:38;;;;;;;4.07;1.20;;;7.30;99.90;;;;;;5095240;27;20047;-69
2021/04/16 15:02:06;;;;;;;2.60;1.08;;;7.40;99.90;;;;;;5105904;28;20063;-70
2021/04/16 15:04:33;;;;;;;3.72;1.20;;;7.50;99.90;;;;;;5106343;28;20464;-69
2021/04/16 15:07:03;;;;;;;6.63;1.30;;;7.50;99.90;;;;;;5108458;28;20488;-69
2021/04/16 15:09:38;;;;;;;3.40;1.40;;;7.60;99.90;;;;;;5109922;28;20040;-70
2021/04/16 15:12:05;;;;;;;4.65;1.20;;;7.90;99.90;;;;;;5090573;28;20066;-69
2021/04/16 15:14:31;;;;;;;5.53;1.20;;;7.60;99.90;;;;;;5102035;28;20247;-69
2021/04/16 15:16:59;;;;;;;5.53;1.30;;;7.80;99.90;;;;;;5107089;28;20089;-70
2021/04/16 15:19:30;;;;;;;4.63;1.45;;;7.60;99.90;;;;;;5091700;28;20120;-69
2021/04/16 15:21:59;;;;;;;2.60;1.35;;;7.80;99.90;;;;;;5110136;28;20044;-69
2021/04/16 15:24:27;;;;;;;4.75;1.27;;;8.20;99.90;;;;;;5097958;28;20040;-69
2021/04/16 15:26:54;;;;;;;3.63;1.30;;;8.10;99.90;;;;;;5101085;28;20048;-69
2021/04/16 15:29:41;;;;;;;3.45;1.58;;;7.80;99.90;;;;;;5089650;28;20046;-69
2021/04/16 15:32:21;;;;;;;3.50;1.40;;;7.30;99.90;;;;;;5094261;28;20044;-69
2021/04/16 15:46:06;;;;;;;3.65;1.35;;;7.50;99.90;;;;;;5097211;28;20044;-69
2021/04/16 15:48:35;;;;;;;3.85;1.30;;;7.50;99.90;;;;;;5097778;27;20040;-70
2021/04/16 15:51:11;;;;;;;3.92;1.73;;;7.10;99.90;;;;;;5095451;28;20485;-69